CheckWX is a tool to help pilots better visualize weather data.  It is not intended as a substitute for an official pre-flight weather briefing.

09:46:50 UTC

UAOO TAF
Kzyl-Orda Southwest Airport
Kzyl-Orda, Kazakhstan
TAF UAOO 140800Z 1409/1418 30004MPS 6000 BKN004 OVC020 TEMPO 1412/1415 VRB01MPS 3100 BR BKN007 TEMPO 1415/1418 VRB01MPS 0500 FZFG VV002

Dec-14@
09:00 UTC

Dec-14 @ 09:00 UTC

Dec-14@
18:00 UTC

Dec-14 @ 18:00 UTC

TAF UAOO 140800Z 1409/1418 30004MPS 6000 BKN004 OVC020
Wind
  • 300° at 8 KTS
Cloud Levels
  • Broken at 400' AGL
  • Overcast at 2,000' AGL

Dec-14@
12:00 UTC

Dec-14 @ 12:00 UTC

Dec-14@
15:00 UTC

Dec-14 @ 15:00 UTC

TEMPO 1412/1415 VRB01MPS 3100 BR BKN007

Temporary

Temporary Changes expected for less than half the time period

Wind
  • Variable at 2 KTS
Conditions
Mist
Cloud Levels
  • Broken at 700' AGL

Dec-14@
15:00 UTC

Dec-14 @ 15:00 UTC

Dec-14@
18:00 UTC

Dec-14 @ 18:00 UTC

TEMPO 1415/1418 VRB01MPS 0500 FZFG VV002

Temporary

Temporary Changes expected for less than half the time period

Wind
  • Variable at 2 KTS
Conditions
Freezing Fog
Cloud Levels
  • Vertical visibility at 200' AGL